createdAt,value
2022-10-22T00:01:16.426Z,9.10
2022-10-22T00:03:44.746Z,7.40
2022-10-22T00:06:12.993Z,12.02
2022-10-22T00:08:42.753Z,10.23
2022-10-22T00:11:12.896Z,10.32
2022-10-22T00:13:41.184Z,7.30
2022-10-22T00:16:10.184Z,11.35
2022-10-22T00:18:38.932Z,10.80
2022-10-22T00:21:08.132Z,8.40
2022-10-22T00:23:36.704Z,10.85
2022-10-22T00:26:06.696Z,7.97
2022-10-22T00:28:34.956Z,8.75
2022-10-22T00:31:03.852Z,6.65
2022-10-22T00:33:32.606Z,7.93
2022-10-22T00:36:00.844Z,5.57
2022-10-22T00:38:29.194Z,5.05
2022-10-22T00:40:57.543Z,4.97
2022-10-22T00:43:28.457Z,3.30
2022-10-22T00:45:56.850Z,3.90
2022-10-22T00:48:28.578Z,2.17
2022-10-22T00:51:00.984Z,4.30
2022-10-22T00:53:33.042Z,1.50
2022-10-22T00:56:01.824Z,5.80
2022-10-22T00:58:36.513Z,3.42
2022-10-22T01:01:06.805Z,2.95
2022-10-22T01:03:35.112Z,3.20
2022-10-22T01:06:06.402Z,4.75
2022-10-22T01:08:41.437Z,2.33
2022-10-22T01:11:16.430Z,2.03
2022-10-22T01:13:56.191Z,2.17
2022-10-22T01:16:33.096Z,3.60
2022-10-22T01:19:10.880Z,2.03
2022-10-22T01:21:43.874Z,3.20
2022-10-22T01:24:36.776Z,1.00
2022-10-22T01:27:16.051Z,1.30
2022-10-22T01:29:51.092Z,1.75
2022-10-22T01:32:22.582Z,3.20
2022-10-22T01:34:55.345Z,1.60
2022-10-22T01:37:26.723Z,2.87
2022-10-22T01:39:57.146Z,2.33
2022-10-22T01:42:25.951Z,1.83
2022-10-22T01:44:55.718Z,1.27
2022-10-22T01:47:39.665Z,1.33
2022-10-22T01:50:25.271Z,2.38
2022-10-22T01:53:06.292Z,2.55
2022-10-22T01:55:53.502Z,1.17
2022-10-22T01:58:35.176Z,2.42
2022-10-22T02:01:10.331Z,2.50
2022-10-22T02:03:45.900Z,3.10
2022-10-22T02:06:19.890Z,0.88
2022-10-22T02:08:50.425Z,2.40
2022-10-22T02:11:18.847Z,3.30
2022-10-22T02:13:50.026Z,2.85
2022-10-22T02:16:23.087Z,1.58
2022-10-22T02:18:55.118Z,1.17
2022-10-22T02:21:23.572Z,4.60
2022-10-22T02:23:52.165Z,7.38
2022-10-22T02:26:24.956Z,1.58
2022-10-22T02:29:00.959Z,2.40
2022-10-22T02:31:33.948Z,2.60
2022-10-22T02:34:10.199Z,3.20
2022-10-22T02:36:40.067Z,1.67
2022-10-22T02:39:10.823Z,1.92
2022-10-22T02:41:39.323Z,1.50
2022-10-22T02:44:11.117Z,2.00
2022-10-22T02:46:44.030Z,3.20
2022-10-22T02:49:12.337Z,1.27
2022-10-22T02:51:40.617Z,2.67
2022-10-22T02:54:09.215Z,1.70
2022-10-22T02:56:37.598Z,1.55
2022-10-22T02:59:05.930Z,1.20
2022-10-22T03:01:34.243Z,3.80
2022-10-22T03:04:04.039Z,2.33
2022-10-22T03:06:32.300Z,2.00
2022-10-22T03:09:00.746Z,1.70
2022-10-22T03:11:29.050Z,2.13
2022-10-22T03:13:57.334Z,2.33
2022-10-22T03:16:25.610Z,1.80
2022-10-22T03:18:53.877Z,2.15
2022-10-22T03:21:30.856Z,3.10
2022-10-22T03:24:00.789Z,1.50
2022-10-22T03:26:29.351Z,2.30
2022-10-22T03:28:57.750Z,4.57
2022-10-22T03:31:26.021Z,1.40
2022-10-22T03:33:54.300Z,1.13
2022-10-22T03:36:24.305Z,2.83
2022-10-22T03:38:52.646Z,1.75
2022-10-22T03:41:21.104Z,2.63
2022-10-22T03:43:53.319Z,2.10
2022-10-22T03:46:22.345Z,3.20
2022-10-22T03:48:50.645Z,4.15
2022-10-22T03:51:18.877Z,2.55
2022-10-22T03:53:48.528Z,5.20
2022-10-22T03:56:16.822Z,1.65
2022-10-22T03:58:45.209Z,5.22
2022-10-22T04:01:14.876Z,2.95
2022-10-22T04:03:43.143Z,3.80
2022-10-22T04:06:13.021Z,3.28
2022-10-22T04:08:42.676Z,9.07
2022-10-22T04:11:13.785Z,2.17
2022-10-22T04:13:42.485Z,2.23
2022-10-22T04:16:12.226Z,3.70
2022-10-22T04:18:41.346Z,2.40
2022-10-22T04:21:11.260Z,5.47
2022-10-22T04:23:40.006Z,6.32
2022-10-22T04:26:09.491Z,5.68
2022-10-22T04:28:39.272Z,3.88
2022-10-22T04:31:10.945Z,3.75
2022-10-22T04:33:39.630Z,4.97
2022-10-22T04:36:09.377Z,7.93
2022-10-22T04:38:37.680Z,3.33
2022-10-22T04:41:13.587Z,2.67
2022-10-22T04:43:43.628Z,3.28
2022-10-22T04:46:12.726Z,3.70
2022-10-22T04:48:42.351Z,3.75
2022-10-22T04:51:13.445Z,2.50
2022-10-22T04:53:41.792Z,4.68
2022-10-22T04:56:12.658Z,7.72
2022-10-22T04:58:42.588Z,5.78
2022-10-22T05:01:12.632Z,4.55
2022-10-22T05:03:41.309Z,5.28
2022-10-22T05:06:09.611Z,4.53
2022-10-22T05:08:38.161Z,4.93
2022-10-22T05:11:13.061Z,7.07
2022-10-22T05:13:42.691Z,5.43
2022-10-22T05:16:11.650Z,6.90
2022-10-22T05:18:41.810Z,7.75
2022-10-22T05:21:12.011Z,4.67
2022-10-22T05:23:40.652Z,8.75
2022-10-22T05:26:10.903Z,5.65
2022-10-22T05:28:39.723Z,6.32
2022-10-22T05:31:11.919Z,6.07
2022-10-22T05:33:40.770Z,9.70
2022-10-22T05:36:10.828Z,6.63
2022-10-22T05:38:39.041Z,9.48
2022-10-22T05:41:09.595Z,7.57
2022-10-22T05:43:38.689Z,6.78
2022-10-22T05:46:10.260Z,6.07
2022-10-22T05:48:38.912Z,5.57
2022-10-22T05:51:08.710Z,6.90
2022-10-22T05:53:38.567Z,7.00
2022-10-22T05:56:09.490Z,10.10
2022-10-22T05:58:38.291Z,9.80
2022-10-22T06:01:08.528Z,9.82
2022-10-22T06:03:38.214Z,7.30
2022-10-22T06:06:22.160Z,5.63
2022-10-22T06:08:52.615Z,9.60
2022-10-22T06:11:22.395Z,10.40
2022-10-22T06:13:51.688Z,6.43
2022-10-22T06:16:19.973Z,8.23
2022-10-22T06:18:49.597Z,6.50
2022-10-22T06:21:18.541Z,8.87
2022-10-22T06:23:46.966Z,6.10
2022-10-22T06:26:15.711Z,5.43
2022-10-22T06:28:43.969Z,7.70
2022-10-22T06:31:12.390Z,7.68
2022-10-22T06:33:42.543Z,6.32
2022-10-22T06:36:15.352Z,8.40
2022-10-22T06:38:43.604Z,6.90
2022-10-22T06:41:14.705Z,5.35
2022-10-22T06:43:45.300Z,6.65
2022-10-22T06:46:17.599Z,5.45
2022-10-22T06:48:50.863Z,8.00
2022-10-22T06:51:21.201Z,7.97
2022-10-22T06:53:49.769Z,4.53
2022-10-22T06:56:20.326Z,4.80
2022-10-22T06:58:49.018Z,7.47
2022-10-22T07:01:19.929Z,6.70
2022-10-22T07:03:48.599Z,9.80
2022-10-22T07:06:17.023Z,9.07
2022-10-22T07:08:46.823Z,4.82
2022-10-22T07:11:17.833Z,8.00
2022-10-22T07:13:46.827Z,5.23
2022-10-22T07:16:15.304Z,6.20
2022-10-22T07:18:44.124Z,5.82
2022-10-22T07:21:13.691Z,4.72
2022-10-22T07:23:42.112Z,7.28
2022-10-22T07:26:15.020Z,7.82
2022-10-22T07:28:44.743Z,5.32
2022-10-22T07:31:14.800Z,7.10
2022-10-22T07:33:43.189Z,6.25
2022-10-22T07:36:17.996Z,6.85
2022-10-22T07:38:47.217Z,7.18
2022-10-22T07:41:17.921Z,3.72
2022-10-22T07:43:46.380Z,6.93
2022-10-22T07:46:15.388Z,5.57
2022-10-22T07:48:43.727Z,4.80
2022-10-22T07:51:12.034Z,6.68
2022-10-22T07:53:40.320Z,10.98
2022-10-22T07:56:09.118Z,12.43
2022-10-22T07:58:38.826Z,7.78
2022-10-22T08:01:07.163Z,6.82
2022-10-22T08:03:35.649Z,8.82
2022-10-22T08:06:04.280Z,5.57
2022-10-22T08:08:33.442Z,5.78
2022-10-22T08:11:02.935Z,5.70
2022-10-22T08:13:31.670Z,8.40
2022-10-22T08:16:02.116Z,5.67
2022-10-22T08:18:31.086Z,6.32
2022-10-22T08:20:59.553Z,7.78
2022-10-22T08:23:29.001Z,7.65
2022-10-22T08:25:58.091Z,8.00
2022-10-22T08:28:28.609Z,4.93
2022-10-22T08:30:56.867Z,6.15
2022-10-22T08:33:26.585Z,4.78
2022-10-22T08:35:55.012Z,7.18
2022-10-22T08:38:23.643Z,8.43
2022-10-22T08:40:55.215Z,7.80
2022-10-22T08:43:40.606Z,6.00
2022-10-22T08:46:18.580Z,6.38
2022-10-22T08:48:51.894Z,9.32
2022-10-22T08:51:23.320Z,5.88
2022-10-22T08:54:06.945Z,6.70
2022-10-22T08:56:37.815Z,5.75
2022-10-22T08:59:12.672Z,4.32
2022-10-22T09:01:44.668Z,5.57
2022-10-22T09:04:25.277Z,7.22
2022-10-22T09:06:56.081Z,4.27
2022-10-22T09:09:27.855Z,7.22
2022-10-22T09:12:00.545Z,5.07
2022-10-22T09:14:30.102Z,7.72
2022-10-22T09:17:14.825Z,9.10
2022-10-22T09:19:54.622Z,8.85
2022-10-22T09:22:31.914Z,5.63
2022-10-22T09:25:03.658Z,5.97
2022-10-22T09:27:33.112Z,5.90
2022-10-22T09:30:02.916Z,6.68
2022-10-22T09:32:32.243Z,4.32
2022-10-22T09:35:02.403Z,5.40
2022-10-22T09:37:31.444Z,4.80
2022-10-22T09:40:00.745Z,5.43
2022-10-22T09:42:29.326Z,5.43
2022-10-22T09:44:59.731Z,12.20
2022-10-22T09:47:42.657Z,4.17
2022-10-22T09:50:38.478Z,3.72
2022-10-22T09:53:13.690Z,6.43
2022-10-22T09:55:43.535Z,5.40
2022-10-22T09:58:14.856Z,11.43
2022-10-22T10:00:46.132Z,4.82
2022-10-22T10:03:19.965Z,5.10
2022-10-22T10:05:53.279Z,8.30
2022-10-22T10:08:21.790Z,6.28
2022-10-22T10:10:53.670Z,20.17
2022-10-22T10:13:44.781Z,4.22
2022-10-22T10:16:31.220Z,6.03
2022-10-22T10:19:16.143Z,4.82
2022-10-22T10:21:56.553Z,4.80
2022-10-22T10:24:32.308Z,4.90
2022-10-22T10:27:06.582Z,8.63
2022-10-22T10:29:46.476Z,5.82
2022-10-22T10:32:39.783Z,4.72
2022-10-22T10:35:21.434Z,3.88
2022-10-22T10:38:06.305Z,3.97
2022-10-22T10:40:41.488Z,5.05
2022-10-22T10:43:14.961Z,4.75
2022-10-22T10:45:55.610Z,2.78
2022-10-22T10:48:39.935Z,3.92
2022-10-22T10:51:22.567Z,6.30
2022-10-22T10:54:06.432Z,4.43
2022-10-22T10:56:40.515Z,3.10
2022-10-22T10:59:20.694Z,3.67
2022-10-22T11:02:04.053Z,3.00
2022-10-22T11:04:50.927Z,3.92
2022-10-22T11:07:34.137Z,4.25
2022-10-22T11:10:13.633Z,4.82
2022-10-22T11:12:49.047Z,4.82
2022-10-22T11:15:25.295Z,2.95
2022-10-22T11:17:56.103Z,5.35
2022-10-22T11:20:29.650Z,3.63
2022-10-22T11:23:20.141Z,4.30
2022-10-22T11:25:51.951Z,5.55
2022-10-22T11:28:26.331Z,5.40
2022-10-22T11:31:02.065Z,5.47
2022-10-22T11:33:39.623Z,3.93
2022-10-22T11:36:09.843Z,5.50
2022-10-22T11:38:38.943Z,4.95
2022-10-22T11:41:14.025Z,5.78
2022-10-22T11:43:59.463Z,4.05
2022-10-22T11:46:40.972Z,3.05
2022-10-22T11:49:26.774Z,6.57
2022-10-22T11:52:24.102Z,4.65
2022-10-22T11:54:56.416Z,4.40
2022-10-22T11:57:30.055Z,4.53
2022-10-22T12:00:00.519Z,3.70
2022-10-22T12:02:41.081Z,3.40
2022-10-22T12:05:21.115Z,3.57
2022-10-22T12:07:57.172Z,6.85
2022-10-22T12:10:30.596Z,4.13
2022-10-22T12:13:06.400Z,3.60
2022-10-22T12:15:34.844Z,5.50
2022-10-22T12:18:06.668Z,6.03
2022-10-22T12:20:34.961Z,5.80
2022-10-22T12:23:03.337Z,3.75
2022-10-22T12:25:35.697Z,4.47
2022-10-22T12:28:06.388Z,6.03
2022-10-22T12:30:35.685Z,4.82
2022-10-22T12:33:05.844Z,6.25
2022-10-22T12:35:35.686Z,3.03
2022-10-22T12:38:09.502Z,5.53
2022-10-22T12:40:37.895Z,2.65
2022-10-22T12:43:13.956Z,3.72
2022-10-22T12:45:44.849Z,3.83
2022-10-22T12:48:18.918Z,2.50
2022-10-22T12:50:50.468Z,2.42
2022-10-22T12:53:21.626Z,3.28
2022-10-22T12:55:52.909Z,5.33
2022-10-22T12:58:31.051Z,4.30
2022-10-22T13:01:02.208Z,3.83
2022-10-22T13:03:33.826Z,2.45
2022-10-22T13:06:14.634Z,5.60
2022-10-22T13:08:42.937Z,6.57
2022-10-22T13:11:13.028Z,2.97
2022-10-22T13:13:47.044Z,4.50
2022-10-22T13:16:21.685Z,2.95
2022-10-22T13:18:50.215Z,4.95
2022-10-22T13:21:30.762Z,3.45
2022-10-22T13:24:01.223Z,3.40
2022-10-22T13:26:34.947Z,2.38
2022-10-22T13:29:11.951Z,3.85
2022-10-22T13:31:47.250Z,2.00
2022-10-22T13:34:19.296Z,4.82
2022-10-22T13:36:47.873Z,3.05
2022-10-22T13:39:19.316Z,5.07
2022-10-22T13:41:50.380Z,3.70
2022-10-22T13:44:20.505Z,3.83
2022-10-22T13:46:49.614Z,5.63
2022-10-22T13:49:20.046Z,3.08
2022-10-22T13:51:50.205Z,4.45
2022-10-22T13:54:21.111Z,5.05
2022-10-22T13:56:49.495Z,4.88
2022-10-22T13:59:22.763Z,3.75
2022-10-22T14:01:52.631Z,2.92
2022-10-22T14:04:20.879Z,3.83
2022-10-22T14:06:49.114Z,3.33
2022-10-22T14:09:17.533Z,5.77
2022-10-22T14:11:46.012Z,5.70
2022-10-22T14:14:17.324Z,4.30
2022-10-22T14:16:47.142Z,3.27
2022-10-22T14:19:18.047Z,8.90
2022-10-22T14:21:47.119Z,6.18
2022-10-22T14:24:15.348Z,6.70
2022-10-22T14:26:43.659Z,5.60
2022-10-22T14:29:12.114Z,2.90
2022-10-22T14:31:41.754Z,4.57
2022-10-22T14:34:13.711Z,6.13
2022-10-22T14:36:43.754Z,4.28
2022-10-22T14:39:13.070Z,4.03
2022-10-22T14:41:42.297Z,4.60
2022-10-22T14:44:14.025Z,5.70
2022-10-22T14:46:44.413Z,3.10
2022-10-22T14:49:14.567Z,3.08
2022-10-22T14:51:43.486Z,5.65
2022-10-22T14:54:11.755Z,6.47
2022-10-22T14:56:39.983Z,5.80
2022-10-22T14:59:08.472Z,5.25
2022-10-22T15:01:36.796Z,4.05
2022-10-22T15:04:05.156Z,5.70
2022-10-22T15:06:34.917Z,4.25
2022-10-22T15:09:03.741Z,4.90
2022-10-22T15:11:32.070Z,3.53
2022-10-22T15:14:00.304Z,5.07
2022-10-22T15:16:28.656Z,6.65
2022-10-22T15:18:57.280Z,4.53
2022-10-22T15:21:25.588Z,5.80
2022-10-22T15:23:55.341Z,5.30
2022-10-22T15:26:23.630Z,3.53
2022-10-22T15:28:52.046Z,5.85
2022-10-22T15:31:44.410Z,7.32
2022-10-22T15:34:12.789Z,7.13
2022-10-22T15:36:41.081Z,4.03
2022-10-22T15:39:11.869Z,4.20
2022-10-22T15:41:40.156Z,6.05
2022-10-22T15:44:09.458Z,4.88
2022-10-22T15:46:37.746Z,3.70
2022-10-22T15:49:06.303Z,11.77
2022-10-22T15:51:34.737Z,8.18
2022-10-22T15:54:05.382Z,6.97
2022-10-22T15:56:39.375Z,7.85
2022-10-22T15:59:08.203Z,5.45
2022-10-22T16:01:36.983Z,8.82
2022-10-22T16:04:05.717Z,4.82
2022-10-22T16:06:36.961Z,10.27
2022-10-22T16:09:07.438Z,6.30
2022-10-22T16:11:36.581Z,7.75
2022-10-22T16:14:07.186Z,6.80
2022-10-22T16:16:39.852Z,9.05
2022-10-22T16:19:08.100Z,6.18
2022-10-22T16:21:36.363Z,6.57
2022-10-22T16:24:06.291Z,6.50
2022-10-22T16:26:35.909Z,7.00
2022-10-22T16:29:07.274Z,4.45
2022-10-22T16:31:36.691Z,5.32
2022-10-22T16:34:05.089Z,3.28
2022-10-22T16:36:33.415Z,4.73
2022-10-22T16:39:01.701Z,7.13
2022-10-22T16:41:35.356Z,4.78
2022-10-22T16:44:08.007Z,4.93
2022-10-22T16:46:38.607Z,5.32
2022-10-22T16:49:07.787Z,7.30
2022-10-22T16:51:36.455Z,9.87
2022-10-22T16:54:08.197Z,7.18
2022-10-22T16:56:39.742Z,9.60
2022-10-22T16:59:09.674Z,8.27
2022-10-22T17:01:40.951Z,10.32
2022-10-22T17:04:10.132Z,6.45
2022-10-22T17:06:38.437Z,4.63
2022-10-22T17:09:06.788Z,6.75
2022-10-22T17:11:37.199Z,10.55
2022-10-22T17:14:08.827Z,9.43
2022-10-22T17:16:38.171Z,11.40
2022-10-22T17:19:06.672Z,13.40
2022-10-22T17:21:35.049Z,9.63
2022-10-22T17:24:03.313Z,14.43
2022-10-22T17:26:33.323Z,12.07
2022-10-22T17:29:01.924Z,12.85
2022-10-22T17:31:33.214Z,15.70
2022-10-22T17:34:01.717Z,9.98
2022-10-22T17:36:35.013Z,13.90
2022-10-22T17:39:07.592Z,13.18
2022-10-22T17:41:38.515Z,19.73
2022-10-22T17:44:09.262Z,14.07
2022-10-22T17:46:39.423Z,14.03
2022-10-22T17:49:14.446Z,13.33
2022-10-22T17:51:42.781Z,13.85
2022-10-22T17:54:11.059Z,11.02
2022-10-22T17:56:40.389Z,10.48
2022-10-22T17:59:08.935Z,10.55
2022-10-22T18:01:43.491Z,11.10
2022-10-22T18:04:14.636Z,9.35
2022-10-22T18:06:42.943Z,9.88
2022-10-22T18:09:17.266Z,11.38
2022-10-22T18:11:47.769Z,11.90
2022-10-22T18:14:17.729Z,13.13
2022-10-22T18:16:48.258Z,13.52
2022-10-22T18:19:19.645Z,14.70
2022-10-22T18:21:48.137Z,16.65
2022-10-22T18:24:17.634Z,10.75
2022-10-22T18:26:46.310Z,13.80
2022-10-22T18:29:18.179Z,10.95
2022-10-22T18:31:48.435Z,12.20
2022-10-22T18:34:20.218Z,12.52
2022-10-22T18:36:51.339Z,15.85
2022-10-22T18:39:19.732Z,12.93
2022-10-22T18:41:48.033Z,15.65
2022-10-22T18:44:17.076Z,15.48
2022-10-22T18:46:45.397Z,12.25
2022-10-22T18:49:19.946Z,14.87
2022-10-22T18:51:52.834Z,8.60
2022-10-22T18:54:23.954Z,13.10
2022-10-22T18:56:52.805Z,14.60
2022-10-22T18:59:23.053Z,13.85
2022-10-22T19:01:52.842Z,12.82
2022-10-22T19:04:22.996Z,10.52
2022-10-22T19:06:51.809Z,11.07
2022-10-22T19:09:20.120Z,11.10
2022-10-22T19:11:48.785Z,9.75
2022-10-22T19:14:19.543Z,15.55
2022-10-22T19:16:48.037Z,16.13
2022-10-22T19:19:18.813Z,11.60
2022-10-22T19:21:48.690Z,13.23
2022-10-22T19:24:19.137Z,14.13
2022-10-22T19:26:48.824Z,11.05
2022-10-22T19:29:18.587Z,12.75
2022-10-22T19:31:47.611Z,10.85
2022-10-22T19:34:15.862Z,13.07
2022-10-22T19:36:44.359Z,15.70
2022-10-22T19:39:16.477Z,15.32
2022-10-22T19:41:44.965Z,15.38
2022-10-22T19:44:13.297Z,10.25
2022-10-22T19:46:41.770Z,13.23
2022-10-22T19:49:11.139Z,11.95
2022-10-22T19:51:40.330Z,13.50
2022-10-22T19:54:12.674Z,14.27
2022-10-22T19:56:42.431Z,13.10
2022-10-22T19:59:10.886Z,13.87
2022-10-22T20:01:39.906Z,16.40
2022-10-22T20:04:08.224Z,10.57
2022-10-22T20:06:36.523Z,15.38
2022-10-22T20:09:06.366Z,14.18
2022-10-22T20:11:34.777Z,14.73
2022-10-22T20:14:04.934Z,12.63
2022-10-22T20:16:33.640Z,12.50
2022-10-22T20:19:03.039Z,10.60
2022-10-22T20:21:31.979Z,13.88
2022-10-22T20:24:00.857Z,13.48
2022-10-22T20:26:31.880Z,14.18
2022-10-22T20:29:00.249Z,10.60
2022-10-22T20:31:31.098Z,11.20
2022-10-22T20:34:01.196Z,11.35
2022-10-22T20:36:31.523Z,12.90
2022-10-22T20:39:02.441Z,16.10
2022-10-22T20:41:31.073Z,15.05
2022-10-22T20:43:59.427Z,13.30
2022-10-22T20:46:31.982Z,10.95
2022-10-22T20:49:02.273Z,12.82
2022-10-22T20:51:31.134Z,16.85
2022-10-22T20:53:59.634Z,11.35
2022-10-22T20:56:28.871Z,11.57
2022-10-22T20:59:05.405Z,13.68
2022-10-22T21:01:38.338Z,10.80
2022-10-22T21:04:06.801Z,11.40
2022-10-22T21:06:38.311Z,11.67
2022-10-22T21:09:07.455Z,9.57
2022-10-22T21:11:36.395Z,10.25
2022-10-22T21:14:05.667Z,13.18
2022-10-22T21:16:35.432Z,12.90
2022-10-22T21:19:04.072Z,11.00
2022-10-22T21:21:32.367Z,10.10
2022-10-22T21:24:00.641Z,11.27
2022-10-22T21:26:28.940Z,11.55
2022-10-22T21:28:57.695Z,13.00
2022-10-22T21:31:27.911Z,14.38
2022-10-22T21:33:57.627Z,9.47
2022-10-22T21:36:26.654Z,12.35
2022-10-22T21:38:55.998Z,11.02
2022-10-22T21:41:25.506Z,10.47
2022-10-22T21:43:53.767Z,13.05
2022-10-22T21:46:24.076Z,7.97
2022-10-22T21:48:55.486Z,8.07
2022-10-22T21:51:26.133Z,9.13
2022-10-22T21:53:55.055Z,9.23
2022-10-22T21:56:25.194Z,11.13
2022-10-22T21:58:53.568Z,12.20
2022-10-22T22:01:22.309Z,8.98
2022-10-22T22:03:51.897Z,11.35
2022-10-22T22:06:22.115Z,10.50
2022-10-22T22:08:53.611Z,12.50
2022-10-22T22:11:24.164Z,11.85
2022-10-22T22:13:53.197Z,11.43
2022-10-22T22:16:27.113Z,11.17
2022-10-22T22:18:57.370Z,12.65
2022-10-22T22:21:25.744Z,12.07
2022-10-22T22:23:55.533Z,11.60
2022-10-22T22:26:29.655Z,12.13
2022-10-22T22:28:59.414Z,10.85
2022-10-22T22:31:29.347Z,10.07
2022-10-22T22:34:01.630Z,10.85
2022-10-22T22:36:33.703Z,13.43
2022-10-22T22:39:04.164Z,11.82
2022-10-22T22:41:32.771Z,12.60
2022-10-22T22:44:01.034Z,10.77
2022-10-22T22:46:29.534Z,13.07
2022-10-22T22:48:57.851Z,10.68
2022-10-22T22:51:26.201Z,9.88
2022-10-22T22:53:54.608Z,12.05
2022-10-22T22:56:25.972Z,11.25
2022-10-22T22:58:54.662Z,10.85
2022-10-22T23:01:25.457Z,10.50
2022-10-22T23:03:56.346Z,14.45
2022-10-22T23:06:25.768Z,15.05
2022-10-22T23:08:55.115Z,12.00
2022-10-22T23:11:26.404Z,13.02
2022-10-22T23:13:56.714Z,14.83
2022-10-22T23:16:26.521Z,11.27
2022-10-22T23:18:56.149Z,14.33
2022-10-22T23:21:26.799Z,11.48
2022-10-22T23:23:56.769Z,15.07
2022-10-22T23:26:28.545Z,11.93
2022-10-22T23:29:00.715Z,13.50
2022-10-22T23:31:29.133Z,13.98
2022-10-22T23:33:57.388Z,11.05
2022-10-22T23:36:25.827Z,11.63
2022-10-22T23:38:54.374Z,12.65
2022-10-22T23:41:23.020Z,9.85
2022-10-22T23:43:53.177Z,12.85
2022-10-22T23:46:21.431Z,11.00
2022-10-22T23:48:49.678Z,13.27
2022-10-22T23:51:18.722Z,12.33
2022-10-22T23:53:47.940Z,15.33
2022-10-22T23:56:18.021Z,10.30
2022-10-22T23:58:46.559Z,7.57
